Portada
METAR-TAF:

METAR-TAF

Aeroports :

Ramona Airport

Ramona, Califòrnia, Estats Units d'Amèrica

latitud: 33-02-15N, longitud: 116-54-57W, altitud: 424 m

Observació

L'informe es va fer fa 1 hora i 7 minuts, a les 06:53 UTC
Vent calma
Temperatura 22°C
Humitat 69%
Pressió 1013 hPa
Visibilitat: 16.1 km
Cel clar

METAR: KRNM 230653Z AUTO 00000KT 10SM CLR 22/16 A2992 RMK AO2 SLP112 T02220156

Hora: 01:00 (08:00 UTC)


TAF: manca

Observacions i pronòstics meteorològics de més de 4000 aeroports (METAR i TAF).

Les estacions disponibles són els punts grocs i vermells al mapa.

Posi el ratolí al punt desitjat per veure el nom de l'estació.

Feu clic per veure les observacions i els pronòstics meteorològics.

Per canviar el mapa: feu clic els botons verds amb una creu de color negre per apropar; al botó verd amb un guió per allunyar la imatge; o en les fletxes verdes per a mapes adjacents.


METAR-TAF: